EHLW METAR and TAF | Updated Today

EHLW METAR

Leeuwarden Air Base

Observation time: 21 min. ago

EHLW 052055Z AUTO 36006KT 9999 OVC390 03/02 Q1042 BLU

Need help? Read our tutorial on how to read METARs or read the parsed version below.

Leeuwarden Air Base (EHLW) METAR

  • Weather conditions on Sun, 05 Feb 2023 20:55:00 +0000 (21 min. ago):
  • Present conditions: Dry
  • Clouds: Overcast sky at 11887 meters
  • Visibility: Greater than 10 km
  • Wind: 360 degrees at 6 knots
  • Temperature: 3 celsius
  • Dew point: 2 celsius
  • Pressure: 1042 millibars
  • Remarks: None


Useful to know...

EHLW TAF

Leeuwarden Air Base

TAF EHLW 051715Z 0518/0606 36012KT CAVOK BECMG 0522/0524 01005KT PROB40 TEMPO 0603/0606 VRB02KT 4000 BR MIFG
Observation time: 4:01 hr. ago
Need help? Read our tutorial on how to read TAFs or read the parsed version below.

Parsed version of TAF for Leeuwarden Air Base (EHLW)

  • From 05 February at 18:00 UTC, to day 06 of the month at 06:00 UTC
  • Visibility: Greater than 10 km
  • Wind: 360 degrees at 12
  • Expected to arise soon, from 05 February at 22:00 UTC, to day 05 of the month at 24:00 UTC
  • Wind: 10 degrees at 5
  • Expected to arise temporarily, from 06 February at 03:00 UTC, to day 06 of the month at 06:00 UTC
    Probability of 40%
  • Visibility: 4000 meters
  • Wind: Variable at 2
  • Other: Mist; shallow fog